createdAt,value
2023-04-27T00:02:01.007Z,5.61
2023-04-27T00:04:28.793Z,5.58
2023-04-27T00:06:56.338Z,5.57
2023-04-27T00:09:23.680Z,5.61
2023-04-27T00:11:51.185Z,5.64
2023-04-27T00:14:18.298Z,5.75
2023-04-27T00:16:45.957Z,5.85
2023-04-27T00:19:14.110Z,5.91
2023-04-27T00:21:41.849Z,6.05
2023-04-27T00:24:09.010Z,6.18
2023-04-27T00:26:36.423Z,6.28
2023-04-27T00:29:03.720Z,6.12
2023-04-27T00:31:30.878Z,5.94
2023-04-27T00:33:58.388Z,5.63
2023-04-27T00:36:25.559Z,5.40
2023-04-27T00:38:53.348Z,5.25
2023-04-27T00:41:20.755Z,5.12
2023-04-27T00:43:47.984Z,5.09
2023-04-27T00:46:15.689Z,5.01
2023-04-27T00:48:43.554Z,4.99
2023-04-27T00:51:10.901Z,4.81
2023-04-27T00:53:38.129Z,4.74
2023-04-27T00:56:06.889Z,4.70
2023-04-27T00:58:34.153Z,4.77
2023-04-27T01:01:01.385Z,4.77
2023-04-27T01:03:29.018Z,4.87
2023-04-27T01:05:57.029Z,4.81
2023-04-27T01:08:24.648Z,4.78
2023-04-27T01:10:52.152Z,4.73
2023-04-27T01:13:19.371Z,4.60
2023-04-27T01:15:46.585Z,4.70
2023-04-27T01:18:14.121Z,4.79
2023-04-27T01:20:42.308Z,4.69
2023-04-27T01:23:16.633Z,4.45
2023-04-27T01:25:44.940Z,4.49
2023-04-27T01:28:12.703Z,4.71
2023-04-27T01:30:39.879Z,4.67
2023-04-27T01:33:07.373Z,4.90
2023-04-27T01:35:34.599Z,4.84
2023-04-27T01:38:02.696Z,4.80
2023-04-27T01:40:30.116Z,4.83
2023-04-27T01:42:57.306Z,4.86
2023-04-27T01:45:24.488Z,4.97
2023-04-27T01:47:53.186Z,4.84
2023-04-27T01:50:20.896Z,4.81
2023-04-27T01:52:48.195Z,4.86
2023-04-27T01:55:15.673Z,4.86
2023-04-27T01:57:43.112Z,4.87
2023-04-27T02:00:10.962Z,4.96
2023-04-27T02:02:47.722Z,5.06
2023-04-27T02:05:15.275Z,5.14
2023-04-27T02:07:42.405Z,5.07
2023-04-27T02:10:10.077Z,5.15
2023-04-27T02:12:37.517Z,5.16
2023-04-27T02:15:05.422Z,5.07
2023-04-27T02:17:34.771Z,5.09
2023-04-27T02:20:02.025Z,5.07
2023-04-27T02:22:29.269Z,4.98
2023-04-27T02:24:57.028Z,4.95
2023-04-27T02:27:24.143Z,5.00
2023-04-27T02:29:51.951Z,5.04
2023-04-27T02:32:19.837Z,5.15
2023-04-27T02:34:47.377Z,4.94
2023-04-27T02:37:14.486Z,4.83
2023-04-27T02:39:41.942Z,4.82
2023-04-27T02:42:09.440Z,4.91
2023-04-27T02:44:36.620Z,4.85
2023-04-27T02:47:03.916Z,4.60
2023-04-27T02:49:31.964Z,4.69
2023-04-27T02:52:00.211Z,4.80
2023-04-27T02:54:27.522Z,4.85
2023-04-27T02:56:55.196Z,4.77
2023-04-27T02:59:22.330Z,4.61
2023-04-27T03:01:49.536Z,4.62
2023-04-27T03:04:17.817Z,4.52
2023-04-27T03:06:45.169Z,4.44
2023-04-27T03:09:13.085Z,4.40
2023-04-27T03:11:40.795Z,4.36
2023-04-27T03:14:07.921Z,4.34
2023-04-27T03:16:35.496Z,4.35
2023-04-27T03:19:03.852Z,4.33
2023-04-27T03:21:31.905Z,4.31
2023-04-27T03:23:59.146Z,4.28
2023-04-27T03:26:26.781Z,4.20
2023-04-27T03:28:53.921Z,3.98
2023-04-27T03:31:21.121Z,3.87
2023-04-27T03:33:49.068Z,3.88
2023-04-27T03:36:16.174Z,3.84
2023-04-27T03:38:43.296Z,3.80
2023-04-27T03:41:11.675Z,3.77
2023-04-27T03:43:38.795Z,3.88
2023-04-27T03:46:06.325Z,3.84
2023-04-27T03:48:33.827Z,3.70
2023-04-27T03:51:01.753Z,3.56
2023-04-27T03:53:28.944Z,3.54
2023-04-27T03:55:56.412Z,3.50
2023-04-27T03:58:23.540Z,3.45
2023-04-27T04:00:52.278Z,3.60
2023-04-27T04:03:19.973Z,3.66
2023-04-27T04:05:47.397Z,3.88
2023-04-27T04:08:14.770Z,3.98
2023-04-27T04:10:42.309Z,4.31
2023-04-27T04:13:10.320Z,4.45
2023-04-27T04:15:37.749Z,4.55
2023-04-27T04:18:05.633Z,4.56
2023-04-27T04:20:35.019Z,4.53
2023-04-27T04:23:02.528Z,4.64
2023-04-27T04:25:30.095Z,4.66
2023-04-27T04:27:58.072Z,4.79
2023-04-27T04:30:25.238Z,5.08
2023-04-27T04:32:52.971Z,5.17
2023-04-27T04:35:20.593Z,5.19
2023-04-27T04:37:47.982Z,5.25
2023-04-27T04:40:15.680Z,5.41
2023-04-27T04:42:42.905Z,5.76
2023-04-27T04:45:10.518Z,6.07
2023-04-27T04:47:39.650Z,6.21
2023-04-27T04:50:09.388Z,6.39
2023-04-27T04:52:37.267Z,6.57
2023-04-27T04:55:05.490Z,6.47
2023-04-27T04:57:32.725Z,6.81
2023-04-27T05:00:00.055Z,7.30
2023-04-27T05:02:27.611Z,7.62
2023-04-27T05:04:57.001Z,7.94
2023-04-27T05:07:25.047Z,8.33
2023-04-27T05:09:52.801Z,8.55
2023-04-27T05:12:20.008Z,8.43
2023-04-27T05:14:48.366Z,8.71
2023-04-27T05:17:15.835Z,9.03
2023-04-27T05:19:42.961Z,9.38
2023-04-27T05:22:10.096Z,9.72
2023-04-27T05:24:37.515Z,9.98
2023-04-27T05:27:04.791Z,10.16
2023-04-27T05:29:31.872Z,10.05
2023-04-27T05:31:59.566Z,9.88
2023-04-27T05:34:26.855Z,9.84
2023-04-27T05:36:54.098Z,9.98
2023-04-27T05:39:21.645Z,10.28
2023-04-27T05:41:49.060Z,10.56
2023-04-27T05:44:16.733Z,10.86
2023-04-27T05:46:44.173Z,10.99
2023-04-27T05:49:11.413Z,11.04
2023-04-27T05:51:39.001Z,10.86
2023-04-27T05:54:08.240Z,10.60
2023-04-27T05:56:35.543Z,10.83
2023-04-27T05:59:03.575Z,11.14
2023-04-27T06:01:31.011Z,11.41
2023-04-27T06:04:01.728Z,11.13
2023-04-27T06:06:32.191Z,11.25
2023-04-27T06:08:59.705Z,11.31
2023-04-27T06:11:26.891Z,11.22
2023-04-27T06:13:54.140Z,10.85
2023-04-27T06:16:21.712Z,10.69
2023-04-27T06:18:50.750Z,10.72
2023-04-27T06:21:18.193Z,11.20
2023-04-27T06:23:45.633Z,11.55
2023-04-27T06:26:12.778Z,11.74
2023-04-27T06:28:39.960Z,11.47
2023-04-27T06:31:07.525Z,10.92
2023-04-27T06:33:34.727Z,11.47
2023-04-27T06:36:02.382Z,11.75
2023-04-27T06:38:29.888Z,12.10
2023-04-27T06:40:57.033Z,11.55
2023-04-27T06:43:24.476Z,11.62
2023-04-27T06:45:51.943Z,11.83
2023-04-27T06:48:19.277Z,11.61
2023-04-27T06:50:46.570Z,11.21
2023-04-27T06:53:14.049Z,11.50
2023-04-27T06:55:43.550Z,11.86
2023-04-27T06:58:12.253Z,12.30
2023-04-27T07:00:39.771Z,12.65
2023-04-27T07:03:07.037Z,12.37
2023-04-27T07:05:34.273Z,12.19
2023-04-27T07:08:04.649Z,12.38
2023-04-27T07:10:34.857Z,12.29
2023-04-27T07:13:02.351Z,12.07
2023-04-27T07:15:31.513Z,12.44
2023-04-27T07:17:58.773Z,12.79
2023-04-27T07:20:26.867Z,12.59
2023-04-27T07:22:54.045Z,12.50
2023-04-27T07:25:21.589Z,12.90
2023-04-27T07:27:49.205Z,13.00
2023-04-27T07:30:17.299Z,12.91
2023-04-27T07:32:44.594Z,13.17
2023-04-27T07:35:12.112Z,13.37
2023-04-27T07:37:41.659Z,13.57
2023-04-27T07:40:14.667Z,13.07
2023-04-27T07:42:42.984Z,13.54
2023-04-27T07:45:10.648Z,13.92
2023-04-27T07:47:39.150Z,14.19
2023-04-27T07:50:07.643Z,14.53
2023-04-27T07:52:34.816Z,14.68
2023-04-27T07:55:02.078Z,14.71
2023-04-27T07:57:29.606Z,14.71
2023-04-27T07:59:57.212Z,14.74
2023-04-27T08:02:24.546Z,14.64
2023-04-27T08:04:52.339Z,14.66
2023-04-27T08:07:19.919Z,13.44
2023-04-27T08:09:47.275Z,13.36
2023-04-27T08:12:14.768Z,13.78
2023-04-27T08:14:42.029Z,13.53
2023-04-27T08:17:09.236Z,13.14
2023-04-27T08:19:36.999Z,12.70
2023-04-27T08:22:04.198Z,12.36
2023-04-27T08:24:31.728Z,12.35
2023-04-27T08:26:59.399Z,13.24
2023-04-27T08:29:28.832Z,13.95
2023-04-27T08:31:59.748Z,14.36
2023-04-27T08:34:28.453Z,14.66
2023-04-27T08:36:56.236Z,14.05
2023-04-27T08:39:24.733Z,14.56
2023-04-27T08:41:52.521Z,14.76
2023-04-27T08:44:19.782Z,14.79
2023-04-27T08:46:47.061Z,14.87
2023-04-27T08:49:16.862Z,15.24
2023-04-27T08:51:44.651Z,15.35
2023-04-27T08:54:11.893Z,14.78
2023-04-27T08:56:39.333Z,14.08
2023-04-27T08:59:17.764Z,13.62
2023-04-27T09:01:49.398Z,12.93
2023-04-27T09:04:18.138Z,12.82
2023-04-27T09:06:46.325Z,13.07
2023-04-27T09:09:23.454Z,12.62
2023-04-27T09:11:51.483Z,12.84
2023-04-27T09:14:24.924Z,13.45
2023-04-27T09:16:57.724Z,13.97
2023-04-27T09:19:26.809Z,14.56
2023-04-27T09:22:07.766Z,14.87
2023-04-27T09:24:35.238Z,13.91
2023-04-27T09:27:03.283Z,14.23
2023-04-27T09:29:39.278Z,14.55
2023-04-27T09:32:17.543Z,14.14
2023-04-27T09:34:45.384Z,14.11
2023-04-27T09:37:14.243Z,13.56
2023-04-27T09:39:42.270Z,13.23
2023-04-27T09:42:09.719Z,13.88
2023-04-27T09:44:37.820Z,14.24
2023-04-27T09:47:05.206Z,14.22
2023-04-27T09:49:34.625Z,14.04
2023-04-27T09:52:02.330Z,13.74
2023-04-27T09:54:32.326Z,13.51
2023-04-27T09:57:28.887Z,13.51
2023-04-27T10:00:22.631Z,13.38
2023-04-27T10:03:03.715Z,13.70
2023-04-27T10:06:04.357Z,13.20
2023-04-27T10:08:34.399Z,13.46
2023-04-27T10:11:01.548Z,13.42
2023-04-27T10:13:31.629Z,13.16
2023-04-27T10:16:15.651Z,12.92
2023-04-27T10:18:52.858Z,12.96
2023-04-27T10:21:20.820Z,13.22
2023-04-27T10:23:50.749Z,13.31
2023-04-27T10:26:25.144Z,13.06
2023-04-27T10:28:58.755Z,13.12
2023-04-27T10:31:29.887Z,12.97
2023-04-27T10:34:11.535Z,13.17
2023-04-27T10:36:40.879Z,13.50
2023-04-27T10:39:18.914Z,13.66
2023-04-27T10:41:53.867Z,13.64
2023-04-27T10:44:28.577Z,13.71
2023-04-27T10:47:01.356Z,13.83
2023-04-27T10:49:29.518Z,13.76
2023-04-27T10:52:00.140Z,13.95
2023-04-27T10:54:28.934Z,14.00
2023-04-27T10:57:07.315Z,14.30
2023-04-27T10:59:36.663Z,13.92
2023-04-27T11:02:04.244Z,13.88
2023-04-27T11:04:38.843Z,13.70
2023-04-27T11:07:08.959Z,13.58
2023-04-27T11:09:37.918Z,13.73
2023-04-27T11:12:12.471Z,14.05
2023-04-27T11:14:39.767Z,13.88
2023-04-27T11:17:07.410Z,13.95
2023-04-27T11:19:45.310Z,14.08
2023-04-27T11:22:14.046Z,14.18
2023-04-27T11:24:51.430Z,14.28
2023-04-27T11:27:20.152Z,14.43
2023-04-27T11:29:47.309Z,14.44
2023-04-27T11:32:22.679Z,14.22
2023-04-27T11:34:53.394Z,14.22
2023-04-27T11:37:26.538Z,13.87
2023-04-27T11:39:54.970Z,13.61
2023-04-27T11:42:23.791Z,13.26
2023-04-27T11:44:58.601Z,13.28
2023-04-27T11:47:27.791Z,13.25
2023-04-27T11:49:57.029Z,13.40
2023-04-27T11:52:32.110Z,13.75
2023-04-27T11:55:01.358Z,14.01
2023-04-27T11:57:30.908Z,13.95
2023-04-27T12:00:00.392Z,13.82
2023-04-27T12:02:29.709Z,13.54
2023-04-27T12:04:59.287Z,13.44
2023-04-27T12:07:27.031Z,13.77
2023-04-27T12:09:54.481Z,13.92
2023-04-27T12:12:22.777Z,13.97
2023-04-27T12:14:50.613Z,14.03
2023-04-27T12:17:18.244Z,13.85
2023-04-27T12:19:45.837Z,14.01
2023-04-27T12:22:13.061Z,13.75
2023-04-27T12:24:40.196Z,13.74
2023-04-27T12:27:08.331Z,13.82
2023-04-27T12:29:35.535Z,13.92
2023-04-27T12:32:02.893Z,13.92
2023-04-27T12:34:30.336Z,14.02
2023-04-27T12:36:57.458Z,14.32
2023-04-27T12:39:27.628Z,14.03
2023-04-27T12:41:55.083Z,14.15
2023-04-27T12:44:22.700Z,14.31
2023-04-27T12:46:50.106Z,14.50
2023-04-27T12:49:17.704Z,14.64
2023-04-27T12:51:46.716Z,14.79
2023-04-27T12:54:14.145Z,14.74
2023-04-27T12:56:42.122Z,14.56
2023-04-27T12:59:09.624Z,14.24
2023-04-27T13:01:37.353Z,14.18
2023-04-27T13:04:09.231Z,14.15
2023-04-27T13:06:36.563Z,14.33
2023-04-27T13:09:03.811Z,14.13
2023-04-27T13:11:31.541Z,14.10
2023-04-27T13:13:59.380Z,14.08
2023-04-27T13:16:26.638Z,14.23
2023-04-27T13:18:55.581Z,14.36
2023-04-27T13:21:23.287Z,14.04
2023-04-27T13:23:51.249Z,14.19
2023-04-27T13:26:19.096Z,14.41
2023-04-27T13:28:49.826Z,14.14
2023-04-27T13:31:17.085Z,13.89
2023-04-27T13:33:44.598Z,13.81
2023-04-27T13:36:12.853Z,13.95
2023-04-27T13:38:40.474Z,14.09
2023-04-27T13:41:08.532Z,14.12
2023-04-27T13:43:35.766Z,13.94
2023-04-27T13:46:03.505Z,14.10
2023-04-27T13:48:32.005Z,14.05
2023-04-27T13:50:59.404Z,14.24
2023-04-27T13:53:26.911Z,14.21
2023-04-27T13:55:55.782Z,14.37
2023-04-27T13:58:25.782Z,14.74
2023-04-27T14:00:54.035Z,14.71
2023-04-27T14:03:22.797Z,14.91
2023-04-27T14:05:51.466Z,14.95
2023-04-27T14:08:18.943Z,15.02
2023-04-27T14:10:46.670Z,14.93
2023-04-27T14:13:14.317Z,14.75
2023-04-27T14:15:42.792Z,14.72
2023-04-27T14:18:10.588Z,14.68
2023-04-27T14:20:38.697Z,14.66
2023-04-27T14:23:06.302Z,14.68
2023-04-27T14:25:34.873Z,14.45
2023-04-27T14:28:04.161Z,14.45
2023-04-27T14:30:32.168Z,14.57
2023-04-27T14:32:59.760Z,14.60
2023-04-27T14:35:27.789Z,14.87
2023-04-27T14:37:57.200Z,14.76
2023-04-27T14:40:24.807Z,14.72
2023-04-27T14:42:51.985Z,14.65
2023-04-27T14:45:19.195Z,14.98
2023-04-27T14:47:46.900Z,15.17
2023-04-27T14:50:14.111Z,15.43
2023-04-27T14:52:41.309Z,15.51
2023-04-27T14:55:09.357Z,15.18
2023-04-27T14:57:36.848Z,15.07
2023-04-27T15:00:09.932Z,15.05
2023-04-27T15:02:38.218Z,15.23
2023-04-27T15:05:06.433Z,15.06
2023-04-27T15:07:33.857Z,14.70
2023-04-27T15:10:01.353Z,14.72
2023-04-27T15:12:29.041Z,14.58
2023-04-27T15:14:56.335Z,14.74
2023-04-27T15:17:24.166Z,14.75
2023-04-27T15:19:51.815Z,14.98
2023-04-27T15:22:18.986Z,14.89
2023-04-27T15:24:46.876Z,14.75
2023-04-27T15:27:14.146Z,14.69
2023-04-27T15:29:41.889Z,14.96
2023-04-27T15:32:09.519Z,14.86
2023-04-27T15:34:37.265Z,14.74
2023-04-27T15:37:04.493Z,14.56
2023-04-27T15:39:32.091Z,14.31
2023-04-27T15:41:59.826Z,14.35
2023-04-27T15:44:27.179Z,14.24
2023-04-27T15:46:54.834Z,14.33
2023-04-27T15:49:22.104Z,14.45
2023-04-27T15:51:50.097Z,14.53
2023-04-27T15:54:18.082Z,14.55
2023-04-27T15:56:45.810Z,14.50
2023-04-27T15:59:13.335Z,14.45
2023-04-27T16:01:41.155Z,14.37
2023-04-27T16:04:08.916Z,14.33
2023-04-27T16:06:36.841Z,14.39
2023-04-27T16:09:04.681Z,14.49
2023-04-27T16:11:32.299Z,14.58
2023-04-27T16:13:59.635Z,14.62
2023-04-27T16:16:27.177Z,14.61
2023-04-27T16:18:54.828Z,14.65
2023-04-27T16:21:22.017Z,14.80
2023-04-27T16:23:49.322Z,14.81
2023-04-27T16:26:16.852Z,15.08
2023-04-27T16:28:44.037Z,15.11
2023-04-27T16:31:12.810Z,15.03
2023-04-27T16:33:40.451Z,15.18
2023-04-27T16:36:10.151Z,15.13
2023-04-27T16:38:39.124Z,15.00
2023-04-27T16:41:06.961Z,14.99
2023-04-27T16:43:34.245Z,14.95
2023-04-27T16:46:01.502Z,14.86
2023-04-27T16:48:29.532Z,14.79
2023-04-27T16:50:56.791Z,14.60
2023-04-27T16:53:24.017Z,14.55
2023-04-27T16:55:51.819Z,14.41
2023-04-27T16:58:19.060Z,14.42
2023-04-27T17:00:46.529Z,14.62
2023-04-27T17:03:14.486Z,14.52
2023-04-27T17:05:41.898Z,14.47
2023-04-27T17:08:09.139Z,14.54
2023-04-27T17:10:36.889Z,14.43
2023-04-27T17:13:05.075Z,14.48
2023-04-27T17:15:32.559Z,14.46
2023-04-27T17:18:04.826Z,14.09
2023-04-27T17:20:32.361Z,13.91
2023-04-27T17:22:59.882Z,13.84
2023-04-27T17:25:27.236Z,13.90
2023-04-27T17:27:54.424Z,13.79
2023-04-27T17:30:21.930Z,13.57
2023-04-27T17:32:49.129Z,13.53
2023-04-27T17:35:16.338Z,13.47
2023-04-27T17:37:43.832Z,13.32
2023-04-27T17:40:11.504Z,13.15
2023-04-27T17:42:38.656Z,12.97
2023-04-27T17:45:06.801Z,12.77
2023-04-27T17:47:34.058Z,12.55
2023-04-27T17:50:01.248Z,12.30
2023-04-27T17:52:28.812Z,12.08
2023-04-27T17:54:56.047Z,11.89
2023-04-27T17:57:23.390Z,11.65
2023-04-27T17:59:50.946Z,11.44
2023-04-27T18:02:18.230Z,11.16
2023-04-27T18:04:46.007Z,10.96
2023-04-27T18:07:13.179Z,10.67
2023-04-27T18:09:40.677Z,10.57
2023-04-27T18:12:11.034Z,10.36
2023-04-27T18:14:38.723Z,10.21
2023-04-27T18:17:06.265Z,10.08
2023-04-27T18:19:34.021Z,9.94
2023-04-27T18:22:01.210Z,9.87
2023-04-27T18:24:28.544Z,9.71
2023-04-27T18:26:55.978Z,9.62
2023-04-27T18:29:23.136Z,9.49
2023-04-27T18:31:50.508Z,9.42
2023-04-27T18:34:17.928Z,9.29
2023-04-27T18:36:51.612Z,9.24
2023-04-27T18:39:20.442Z,9.16
2023-04-27T18:41:48.188Z,9.09
2023-04-27T18:44:16.260Z,8.98
2023-04-27T18:46:44.671Z,8.89
2023-04-27T18:49:12.678Z,8.87
2023-04-27T18:51:40.024Z,8.81
2023-04-27T18:54:07.515Z,8.74
2023-04-27T18:56:35.446Z,8.68
2023-04-27T18:59:02.616Z,8.67
2023-04-27T19:01:30.321Z,8.59
2023-04-27T19:03:57.970Z,8.51
2023-04-27T19:06:25.366Z,8.38
2023-04-27T19:08:52.845Z,8.36
2023-04-27T19:11:22.351Z,8.26
2023-04-27T19:13:50.582Z,8.16
2023-04-27T19:16:18.120Z,8.06
2023-04-27T19:18:45.429Z,8.07
2023-04-27T19:21:12.835Z,8.03
2023-04-27T19:23:40.452Z,7.99
2023-04-27T19:26:13.013Z,7.91
2023-04-27T19:28:41.628Z,7.91
2023-04-27T19:31:09.566Z,7.80
2023-04-27T19:33:36.759Z,7.69
2023-04-27T19:36:04.475Z,7.67
2023-04-27T19:38:31.790Z,7.68
2023-04-27T19:40:59.004Z,7.69
2023-04-27T19:43:26.431Z,7.66
2023-04-27T19:45:53.632Z,7.68
2023-04-27T19:48:20.769Z,7.60
2023-04-27T19:50:48.195Z,7.57
2023-04-27T19:53:16.090Z,7.60
2023-04-27T19:55:43.258Z,7.53
2023-04-27T19:58:10.829Z,7.46
2023-04-27T20:00:38.103Z,7.47
2023-04-27T20:03:06.667Z,7.45
2023-04-27T20:05:35.774Z,7.36
2023-04-27T20:08:03.012Z,7.30
2023-04-27T20:10:30.466Z,7.25
2023-04-27T20:12:57.659Z,7.29
2023-04-27T20:15:25.724Z,7.35
2023-04-27T20:17:53.693Z,7.34
2023-04-27T20:20:21.108Z,7.29
2023-04-27T20:22:48.441Z,7.34
2023-04-27T20:25:15.956Z,7.37
2023-04-27T20:27:43.286Z,7.37
2023-04-27T20:30:10.836Z,7.27
2023-04-27T20:32:40.330Z,7.23
2023-04-27T20:35:11.353Z,7.19
2023-04-27T20:37:39.963Z,7.12
2023-04-27T20:40:08.075Z,7.11
2023-04-27T20:42:36.094Z,7.02
2023-04-27T20:45:05.534Z,7.11
2023-04-27T20:47:32.871Z,7.37
2023-04-27T20:50:00.107Z,7.51
2023-04-27T20:52:30.662Z,7.62
2023-04-27T20:54:59.092Z,7.40
2023-04-27T20:57:26.461Z,7.20
2023-04-27T20:59:53.976Z,7.05
2023-04-27T21:02:21.308Z,6.92
2023-04-27T21:04:48.605Z,6.78
2023-04-27T21:07:16.187Z,6.77
2023-04-27T21:09:45.974Z,6.69
2023-04-27T21:12:14.779Z,6.54
2023-04-27T21:14:42.231Z,6.48
2023-04-27T21:17:09.523Z,6.47
2023-04-27T21:19:36.818Z,6.33
2023-04-27T21:22:04.338Z,6.25
2023-04-27T21:24:31.597Z,6.25
2023-04-27T21:26:58.947Z,6.23
2023-04-27T21:29:26.412Z,6.26
2023-04-27T21:31:53.600Z,6.16
2023-04-27T21:34:20.798Z,6.14
2023-04-27T21:36:48.543Z,6.17
2023-04-27T21:39:15.785Z,6.22
2023-04-27T21:41:42.980Z,6.25
2023-04-27T21:44:10.532Z,6.20
2023-04-27T21:46:37.770Z,6.15
2023-04-27T21:49:04.957Z,6.15
2023-04-27T21:51:34.520Z,6.18
2023-04-27T21:54:01.843Z,6.21
2023-04-27T21:56:29.181Z,6.15
2023-04-27T21:58:56.716Z,6.07
2023-04-27T22:01:24.383Z,6.13
2023-04-27T22:03:52.599Z,6.05
2023-04-27T22:06:20.611Z,5.88
2023-04-27T22:08:48.106Z,5.80
2023-04-27T22:11:15.595Z,5.83
2023-04-27T22:13:42.846Z,5.91
2023-04-27T22:16:11.655Z,5.76
2023-04-27T22:18:40.610Z,5.75
2023-04-27T22:21:08.288Z,5.70
2023-04-27T22:23:35.659Z,5.91
2023-04-27T22:26:03.198Z,5.87
2023-04-27T22:28:30.945Z,5.87
2023-04-27T22:30:58.298Z,5.72
2023-04-27T22:33:25.839Z,5.59
2023-04-27T22:35:53.053Z,5.64
2023-04-27T22:38:20.340Z,5.67
2023-04-27T22:40:47.814Z,5.71
2023-04-27T22:43:14.995Z,5.77
2023-04-27T22:45:42.253Z,5.72
2023-04-27T22:48:09.791Z,5.57
2023-04-27T22:50:37.060Z,5.59
2023-04-27T22:53:04.594Z,5.60
2023-04-27T22:55:32.039Z,5.81
2023-04-27T22:57:59.248Z,5.81
2023-04-27T23:00:26.709Z,5.76
2023-04-27T23:02:54.266Z,5.62
2023-04-27T23:05:22.188Z,5.61
2023-04-27T23:07:50.930Z,5.58
2023-04-27T23:10:18.988Z,5.70
2023-04-27T23:12:46.459Z,5.97
2023-04-27T23:15:13.655Z,6.08
2023-04-27T23:17:41.313Z,6.19
2023-04-27T23:20:24.033Z,6.03
2023-04-27T23:22:54.778Z,5.93
2023-04-27T23:25:22.282Z,5.98
2023-04-27T23:27:51.830Z,5.99
2023-04-27T23:30:21.432Z,5.81
2023-04-27T23:32:48.709Z,5.86
2023-04-27T23:35:16.065Z,5.85
2023-04-27T23:37:44.309Z,5.68
2023-04-27T23:40:12.220Z,5.77
2023-04-27T23:42:39.445Z,5.89
2023-04-27T23:45:07.429Z,6.19
2023-04-27T23:47:34.733Z,6.33
2023-04-27T23:50:02.953Z,6.50
2023-04-27T23:52:30.586Z,6.37
2023-04-27T23:54:58.264Z,5.95
2023-04-27T23:57:25.472Z,5.80
2023-04-27T23:59:53.005Z,5.60
